Time;durP1;ratioP1;P1;durP2;ratioP2;P2;SDS_P1;SDS_P2;PMS_P1;PMS_P2;Temp;Humidity;BMP_temperature;BMP_pressure;BME280_temperature;BME280_humidity;BME280_pressure;Samples;Min_cycle;Max_cycle;Signal;HPM_P1;HPM_P2
2022/08/05 04:40:47;;;;;;;0.30;0.30;;;;;;;;;;7387754;19;20571;-68
2022/08/05 04:43:12;;;;;;;0.75;0.75;;;;;;;;;;7381760;19;20464;-68
2022/08/05 04:45:38;;;;;;;0.60;0.60;;;;;;;;;;7386190;19;20125;-68
2022/08/05 04:48:08;;;;;;;0.30;0.30;;;;;;;;;;7384530;19;20614;-68
2022/08/05 04:50:44;;;;;;;0.32;0.32;;;;;;;;;;7386086;19;20229;-68
2022/08/05 04:53:11;;;;;;;0.40;0.40;;;;;;;;;;7384762;19;20162;-68
2022/08/05 04:55:37;;;;;;;0.30;0.30;;;;;;;;;;7384199;19;20609;-68
2022/08/05 04:58:04;;;;;;;0.30;0.30;;;;;;;;;;7387871;19;20176;-68
2022/08/05 05:00:30;;;;;;;0.22;0.22;;;;;;;;;;7385715;19;20123;-68
2022/08/05 05:02:56;;;;;;;0.30;0.30;;;;;;;;;;7384515;19;20147;-68
2022/08/05 05:05:21;;;;;;;0.30;0.30;;;;;;;;;;7384741;19;20125;-68
2022/08/05 05:07:46;;;;;;;0.35;0.35;;;;;;;;;;7386757;19;20189;-68
2022/08/05 05:10:11;;;;;;;0.30;0.30;;;;;;;;;;7384214;19;20136;-68
2022/08/05 05:12:37;;;;;;;0.30;0.30;;;;;;;;;;7385540;19;20172;-68
2022/08/05 05:15:03;;;;;;;0.30;0.30;;;;;;;;;;7385133;19;20164;-68
2022/08/05 05:17:36;;;;;;;0.40;0.40;;;;;;;;;;7378450;19;20166;-67
2022/08/05 05:20:01;;;;;;;0.40;0.40;;;;;;;;;;7383348;19;20129;-67
2022/08/05 05:22:26;;;;;;;0.30;0.30;;;;;;;;;;7380470;19;20145;-68
2022/08/05 05:24:55;;;;;;;0.77;0.50;;;;;;;;;;7388064;19;20124;-67
2022/08/05 05:27:20;;;;;;;0.30;0.30;;;;;;;;;;7387535;19;20204;-68
2022/08/05 05:29:46;;;;;;;0.30;0.30;;;;;;;;;;7386411;19;20136;-68
2022/08/05 05:32:11;;;;;;;0.50;0.50;;;;;;;;;;7385835;19;20149;-68
2022/08/05 05:34:36;;;;;;;0.40;0.40;;;;;;;;;;7385015;19;20160;-68
2022/08/05 05:37:01;;;;;;;0.30;0.30;;;;;;;;;;7387515;19;20138;-68
2022/08/05 05:39:27;;;;;;;0.40;0.40;;;;;;;;;;7388064;19;20128;-67
2022/08/05 05:41:52;;;;;;;0.77;0.77;;;;;;;;;;7387555;19;20149;-68
2022/08/05 05:44:17;;;;;;;0.40;0.40;;;;;;;;;;7386151;19;20651;-68
2022/08/05 05:46:43;;;;;;;0.30;0.30;;;;;;;;;;7386207;19;20144;-68
2022/08/05 05:49:08;;;;;;;0.40;0.40;;;;;;;;;;7386192;19;20132;-68
2022/08/05 05:51:33;;;;;;;0.40;0.40;;;;;;;;;;7386587;19;20137;-67
2022/08/05 05:53:58;;;;;;;0.35;0.35;;;;;;;;;;7384785;19;20143;-67
2022/08/05 05:56:28;;;;;;;0.30;0.30;;;;;;;;;;7385361;19;20157;-68
2022/08/05 05:58:53;;;;;;;0.30;0.30;;;;;;;;;;7386001;19;20117;-68
2022/08/05 06:01:18;;;;;;;0.73;0.60;;;;;;;;;;7392683;19;20136;-68
2022/08/05 06:03:44;;;;;;;0.43;0.43;;;;;;;;;;7394259;19;20223;-68
2022/08/05 06:06:09;;;;;;;0.30;0.30;;;;;;;;;;7393931;19;20152;-68
2022/08/05 06:08:34;;;;;;;0.30;0.30;;;;;;;;;;7394239;19;20136;-68
2022/08/05 06:11:00;;;;;;;0.32;0.32;;;;;;;;;;7394092;19;20662;-68
2022/08/05 06:13:25;;;;;;;0.40;0.40;;;;;;;;;;7391697;19;20169;-68
2022/08/05 06:15:51;;;;;;;0.30;0.30;;;;;;;;;;7393583;19;20134;-67
2022/08/05 06:18:16;;;;;;;1.08;0.77;;;;;;;;;;7392317;19;20220;-68
2022/08/05 06:20:41;;;;;;;0.40;0.40;;;;;;;;;;7393761;19;20529;-68
2022/08/05 06:23:07;;;;;;;0.38;0.38;;;;;;;;;;7391175;19;20518;-68
2022/08/05 06:25:32;;;;;;;0.50;0.50;;;;;;;;;;7391911;19;20121;-68
2022/08/05 06:27:57;;;;;;;0.30;0.30;;;;;;;;;;7394204;19;20149;-68
2022/08/05 06:30:25;;;;;;;0.60;0.60;;;;;;;;;;7388829;19;20622;-68
2022/08/05 06:32:50;;;;;;;0.47;0.47;;;;;;;;;;7390722;19;20152;-68
2022/08/05 06:35:16;;;;;;;0.32;0.32;;;;;;;;;;7392349;19;20113;-68
2022/08/05 06:37:41;;;;;;;0.30;0.30;;;;;;;;;;7393930;19;20590;-68
2022/08/05 06:40:07;;;;;;;0.30;0.30;;;;;;;;;;7392310;19;20121;-68
2022/08/05 06:42:35;;;;;;;0.60;0.60;;;;;;;;;;7392270;19;20173;-68
2022/08/05 06:45:01;;;;;;;0.50;0.50;;;;;;;;;;7389288;19;20149;-68
2022/08/05 06:47:26;;;;;;;0.90;0.90;;;;;;;;;;7392776;19;20225;-68
2022/08/05 06:49:51;;;;;;;0.52;0.52;;;;;;;;;;7390399;19;20117;-68
2022/08/05 06:52:16;;;;;;;0.30;0.30;;;;;;;;;;7388840;19;20166;-67
2022/08/05 06:54:42;;;;;;;0.30;0.30;;;;;;;;;;7391281;19;20311;-68
2022/08/05 06:57:07;;;;;;;0.50;0.50;;;;;;;;;;7391965;19;20132;-67
2022/08/05 06:59:32;;;;;;;0.52;0.52;;;;;;;;;;7390356;19;20330;-67
2022/08/05 07:01:58;;;;;;;1.08;1.00;;;;;;;;;;7391956;19;20153;-68
2022/08/05 07:04:23;;;;;;;0.30;0.30;;;;;;;;;;7389842;19;20117;-68
2022/08/05 07:06:48;;;;;;;0.98;0.98;;;;;;;;;;7392128;19;20480;-68
2022/08/05 07:09:14;;;;;;;0.30;0.30;;;;;;;;;;7390389;19;21457;-68
2022/08/05 07:11:39;;;;;;;0.50;0.50;;;;;;;;;;7389778;19;20677;-68
2022/08/05 07:16:48;;;;;;;0.30;0.30;;;;;;;;;;7392089;19;20424;-68
2022/08/05 07:19:17;;;;;;;0.47;0.47;;;;;;;;;;7391050;19;20113;-68
2022/08/05 07:21:47;;;;;;;0.40;0.40;;;;;;;;;;7391454;19;20149;-68
2022/08/05 07:24:13;;;;;;;0.30;0.30;;;;;;;;;;7388248;19;20939;-68
2022/08/05 07:26:39;;;;;;;0.50;0.50;;;;;;;;;;7388523;19;20121;-68
2022/08/05 07:29:05;;;;;;;0.50;0.50;;;;;;;;;;7390866;19;20664;-68
2022/08/05 07:31:30;;;;;;;0.38;0.38;;;;;;;;;;7387709;19;20153;-68
2022/08/05 07:33:55;;;;;;;1.25;1.15;;;;;;;;;;7389798;19;20127;-67
2022/08/05 07:36:21;;;;;;;0.55;0.55;;;;;;;;;;7390749;19;20189;-68
2022/08/05 07:38:46;;;;;;;0.30;0.30;;;;;;;;;;7391331;19;20117;-68
2022/08/05 07:41:16;;;;;;;0.40;0.40;;;;;;;;;;7390703;19;20129;-68
2022/08/05 07:43:42;;;;;;;0.30;0.30;;;;;;;;;;7388318;19;20578;-68
2022/08/05 07:46:07;;;;;;;0.30;0.30;;;;;;;;;;7388492;19;20129;-68
2022/08/05 07:48:33;;;;;;;0.30;0.30;;;;;;;;;;7387647;19;20466;-68
2022/08/05 07:50:58;;;;;;;0.40;0.40;;;;;;;;;;7389330;19;20129;-68
2022/08/05 07:53:24;;;;;;;0.63;0.63;;;;;;;;;;7384561;19;20153;-68
2022/08/05 07:55:49;;;;;;;0.30;0.30;;;;;;;;;;7386449;19;20129;-68
2022/08/05 07:58:15;;;;;;;0.50;0.50;;;;;;;;;;7389730;19;20130;-68
2022/08/05 08:00:41;;;;;;;0.40;0.40;;;;;;;;;;7391124;19;20148;-68
2022/08/05 08:03:10;;;;;;;0.30;0.30;;;;;;;;;;7388684;19;20208;-68
2022/08/05 08:05:36;;;;;;;0.30;0.30;;;;;;;;;;7388116;19;20140;-68
2022/08/05 08:08:01;;;;;;;0.30;0.30;;;;;;;;;;7390568;19;20208;-68
2022/08/05 08:10:27;;;;;;;0.40;0.40;;;;;;;;;;7389748;19;20136;-68
2022/08/05 08:12:53;;;;;;;0.40;0.40;;;;;;;;;;7387726;19;20220;-68
2022/08/05 08:15:18;;;;;;;0.30;0.30;;;;;;;;;;7387020;19;20132;-68
2022/08/05 08:17:44;;;;;;;0.28;0.28;;;;;;;;;;7391279;19;20121;-68
2022/08/05 08:20:09;;;;;;;0.30;0.30;;;;;;;;;;7386314;19;20132;-68
2022/08/05 08:22:35;;;;;;;0.65;0.55;;;;;;;;;;7386677;19;20208;-68
2022/08/05 08:25:00;;;;;;;0.20;0.20;;;;;;;;;;7387695;19;20194;-67
2022/08/05 08:27:25;;;;;;;0.40;0.40;;;;;;;;;;7387876;19;20155;-68
2022/08/05 08:29:51;;;;;;;0.40;0.40;;;;;;;;;;7387314;19;20588;-68
2022/08/05 08:32:16;;;;;;;0.32;0.32;;;;;;;;;;7389442;19;20177;-68
2022/08/05 08:34:41;;;;;;;0.30;0.30;;;;;;;;;;7386034;19;20219;-67
2022/08/05 08:37:07;;;;;;;0.35;0.35;;;;;;;;;;7390531;19;20121;-68
2022/08/05 08:39:33;;;;;;;0.57;0.57;;;;;;;;;;7386019;19;20586;-68
2022/08/05 08:41:59;;;;;;;0.68;0.68;;;;;;;;;;7387653;19;20152;-68
2022/08/05 08:44:28;;;;;;;0.30;0.30;;;;;;;;;;7385695;19;20804;-68
2022/08/05 08:46:53;;;;;;;0.30;0.30;;;;;;;;;;7388472;19;20148;-68
2022/08/05 08:49:20;;;;;;;0.22;0.22;;;;;;;;;;7385107;19;20127;-68
2022/08/05 08:51:47;;;;;;;0.30;0.30;;;;;;;;;;7387091;19;20173;-68
2022/08/05 08:54:13;;;;;;;0.30;0.30;;;;;;;;;;7384888;19;20121;-68
2022/08/05 08:56:38;;;;;;;0.60;0.60;;;;;;;;;;7387579;19;20153;-68
2022/08/05 08:59:04;;;;;;;0.52;0.52;;;;;;;;;;7387062;19;20129;-67
2022/08/05 09:01:30;;;;;;;0.30;0.30;;;;;;;;;;7388257;19;20144;-68
2022/08/05 09:03:56;;;;;;;0.75;0.75;;;;;;;;;;7386168;19;20148;-68
2022/08/05 09:06:22;;;;;;;0.50;0.50;;;;;;;;;;7386562;19;20141;-68
2022/08/05 09:08:47;;;;;;;0.38;0.38;;;;;;;;;;7387069;19;20125;-68
2022/08/05 09:11:13;;;;;;;0.40;0.40;;;;;;;;;;7387566;19;20127;-68
2022/08/05 09:13:40;;;;;;;0.30;0.30;;;;;;;;;;7386845;19;20121;-68
2022/08/05 09:16:07;;;;;;;0.40;0.40;;;;;;;;;;7387308;19;20114;-68
2022/08/05 09:18:35;;;;;;;0.60;0.60;;;;;;;;;;7386264;19;20125;-68
2022/08/05 09:21:00;;;;;;;0.30;0.30;;;;;;;;;;7386406;19;20128;-68
2022/08/05 09:23:26;;;;;;;0.30;0.30;;;;;;;;;;7385091;19;20470;-68
2022/08/05 09:26:04;;;;;;;0.47;0.47;;;;;;;;;;7386613;19;20141;-66
2022/08/05 09:28:30;;;;;;;0.30;0.30;;;;;;;;;;7387218;19;20123;-65
2022/08/05 09:31:03;;;;;;;0.40;0.40;;;;;;;;;;7386168;19;20121;-65
2022/08/05 09:33:29;;;;;;;0.50;0.50;;;;;;;;;;7384661;19;20148;-66
2022/08/05 09:35:59;;;;;;;0.30;0.30;;;;;;;;;;7391370;19;20212;-66
2022/08/05 09:38:25;;;;;;;0.40;0.40;;;;;;;;;;7396650;19;20117;-67
2022/08/05 09:40:52;;;;;;;0.30;0.30;;;;;;;;;;7394362;19;20606;-66
2022/08/05 09:43:36;;;;;;;0.50;0.50;;;;;;;;;;7390402;19;20185;-66
2022/08/05 09:46:05;;;;;;;0.30;0.30;;;;;;;;;;7393078;19;20155;-66
2022/08/05 09:48:32;;;;;;;0.30;0.30;;;;;;;;;;7392622;19;20462;-66
2022/08/05 09:51:07;;;;;;;0.30;0.30;;;;;;;;;;7394234;19;20591;-66
2022/08/05 09:53:47;;;;;;;0.30;0.30;;;;;;;;;;7392360;19;20121;-66
2022/08/05 09:56:12;;;;;;;0.50;0.50;;;;;;;;;;7393402;19;20121;-66
2022/08/05 09:58:38;;;;;;;0.30;0.30;;;;;;;;;;7394944;19;20121;-66
2022/08/05 10:01:05;;;;;;;0.50;0.50;;;;;;;;;;7394267;19;20170;-66
2022/08/05 10:03:31;;;;;;;0.40;0.40;;;;;;;;;;7393181;19;20128;-66
2022/08/05 10:06:07;;;;;;;0.30;0.30;;;;;;;;;;7391872;19;20129;-66
2022/08/05 10:08:37;;;;;;;0.50;0.50;;;;;;;;;;7392048;19;20508;-66
2022/08/05 10:11:13;;;;;;;0.32;0.32;;;;;;;;;;7391989;19;20132;-66
2022/08/05 10:13:39;;;;;;;0.30;0.30;;;;;;;;;;7393898;19;20148;-65
2022/08/05 10:16:06;;;;;;;0.38;0.38;;;;;;;;;;7392068;19;20225;-66
2022/08/05 10:18:33;;;;;;;0.28;0.28;;;;;;;;;;7392388;19;20117;-66
2022/08/05 10:21:04;;;;;;;0.43;0.43;;;;;;;;;;7390889;19;20137;-66
2022/08/05 10:23:32;;;;;;;0.60;0.60;;;;;;;;;;7391942;19;20513;-66
2022/08/05 10:25:59;;;;;;;0.82;0.82;;;;;;;;;;7389831;19;20117;-66
2022/08/05 10:28:26;;;;;;;0.40;0.40;;;;;;;;;;7390718;19;20156;-66
2022/08/05 10:30:52;;;;;;;0.30;0.30;;;;;;;;;;7393548;19;20137;-66
2022/08/05 10:33:18;;;;;;;0.40;0.40;;;;;;;;;;7390575;19;20165;-66
2022/08/05 10:35:44;;;;;;;0.32;0.32;;;;;;;;;;7390314;19;20137;-66
2022/08/05 10:38:09;;;;;;;0.65;0.65;;;;;;;;;;7390938;19;20773;-66
2022/08/05 10:40:42;;;;;;;0.40;0.40;;;;;;;;;;7390949;19;20539;-69
2022/08/05 10:43:35;;;;;;;0.40;0.40;;;;;;;;;;7390608;19;20160;-69
2022/08/05 10:46:06;;;;;;;0.32;0.32;;;;;;;;;;7391590;19;20125;-68
2022/08/05 10:48:35;;;;;;;0.60;0.60;;;;;;;;;;7392396;19;20121;-68
2022/08/05 10:51:02;;;;;;;0.65;0.65;;;;;;;;;;7390653;19;20148;-69
2022/08/05 10:53:39;;;;;;;1.15;0.85;;;;;;;;;;7390668;19;20181;-69
2022/08/05 10:56:22;;;;;;;0.32;0.32;;;;;;;;;;7392268;19;20125;-69
2022/08/05 10:58:51;;;;;;;0.32;0.32;;;;;;;;;;7390615;19;20142;-69
2022/08/05 11:01:17;;;;;;;0.40;0.40;;;;;;;;;;7391416;19;20122;-68
2022/08/05 11:04:05;;;;;;;6.70;0.82;;;;;;;;;;7389571;19;20133;-66
2022/08/05 11:06:31;;;;;;;0.40;0.40;;;;;;;;;;7392816;19;20138;-66
2022/08/05 11:09:09;;;;;;;0.40;0.40;;;;;;;;;;7390148;19;20156;-66
2022/08/05 11:11:35;;;;;;;0.43;0.43;;;;;;;;;;7391854;19;20149;-66
2022/08/05 11:14:01;;;;;;;0.40;0.40;;;;;;;;;;7389868;19;20125;-66
2022/08/05 11:16:27;;;;;;;0.73;0.73;;;;;;;;;;7392497;19;20117;-66
2022/08/05 11:19:25;;;;;;;0.40;0.40;;;;;;;;;;7390106;19;20500;-66
2022/08/05 11:21:50;;;;;;;0.40;0.40;;;;;;;;;;7392281;19;20149;-67
2022/08/05 11:24:16;;;;;;;0.50;0.50;;;;;;;;;;7388701;19;20124;-66
2022/08/05 11:26:41;;;;;;;0.90;0.60;;;;;;;;;;7390542;19;20117;-66
2022/08/05 11:29:07;;;;;;;0.50;0.50;;;;;;;;;;7387793;19;20129;-66
2022/08/05 11:31:32;;;;;;;0.50;0.50;;;;;;;;;;7391440;19;20618;-66
2022/08/05 11:34:00;;;;;;;0.50;0.50;;;;;;;;;;7390164;19;20117;-66
2022/08/05 11:36:40;;;;;;;0.50;0.50;;;;;;;;;;7389529;19;20132;-66
2022/08/05 11:39:07;;;;;;;0.50;0.50;;;;;;;;;;7389562;19;20120;-68
2022/08/05 11:41:34;;;;;;;0.40;0.40;;;;;;;;;;7388767;19;20172;-68
2022/08/05 11:44:02;;;;;;;0.60;0.60;;;;;;;;;;7388295;19;20125;-68
2022/08/05 11:46:36;;;;;;;0.47;0.47;;;;;;;;;;7387584;19;20614;-68
2022/08/05 11:49:04;;;;;;;0.70;0.70;;;;;;;;;;7387262;19;20514;-69
2022/08/05 11:51:29;;;;;;;0.50;0.50;;;;;;;;;;7387701;19;20148;-68
2022/08/05 11:53:55;;;;;;;0.60;0.60;;;;;;;;;;7388718;19;20124;-68
2022/08/05 11:56:21;;;;;;;0.40;0.40;;;;;;;;;;7388510;19;20149;-68
2022/08/05 11:58:48;;;;;;;0.77;0.70;;;;;;;;;;7385962;19;20124;-68
2022/08/05 12:01:21;;;;;;;0.90;0.82;;;;;;;;;;7387654;19;20143;-69
2022/08/05 12:03:51;;;;;;;0.43;0.43;;;;;;;;;;7386716;19;20117;-68
2022/08/05 12:06:21;;;;;;;0.70;0.70;;;;;;;;;;7387597;19;20603;-69
2022/08/05 12:08:47;;;;;;;0.73;0.73;;;;;;;;;;7389481;19;20117;-69
2022/08/05 12:11:24;;;;;;;0.88;0.60;;;;;;;;;;7386297;19;20208;-69
2022/08/05 12:14:00;;;;;;;0.60;0.60;;;;;;;;;;7389139;19;20116;-69
2022/08/05 12:16:33;;;;;;;0.52;0.52;;;;;;;;;;7389078;19;20136;-69
2022/08/05 12:18:59;;;;;;;2.17;1.48;;;;;;;;;;7390761;19;20657;-68
2022/08/05 12:21:35;;;;;;;0.40;0.40;;;;;;;;;;7386812;19;20153;-69
2022/08/05 12:24:05;;;;;;;0.60;0.60;;;;;;;;;;7387106;19;20618;-69
2022/08/05 12:26:41;;;;;;;0.57;0.57;;;;;;;;;;7389368;19;20117;-69
2022/08/05 12:29:09;;;;;;;0.65;0.65;;;;;;;;;;7387185;19;20124;-69
2022/08/05 12:31:34;;;;;;;0.40;0.40;;;;;;;;;;7388556;19;20181;-69
2022/08/05 12:34:01;;;;;;;0.75;0.75;;;;;;;;;;7386896;19;20113;-69
2022/08/05 12:36:26;;;;;;;0.70;0.70;;;;;;;;;;7388802;19;20124;-68
2022/08/05 12:38:52;;;;;;;1.23;0.85;;;;;;;;;;7388703;19;20129;-69
2022/08/05 12:41:17;;;;;;;0.40;0.40;;;;;;;;;;7386855;19;20611;-69
2022/08/05 12:43:54;;;;;;;1.02;0.93;;;;;;;;;;7387516;19;20117;-68
2022/08/05 12:46:22;;;;;;;0.98;0.98;;;;;;;;;;7386800;19;20144;-68
2022/08/05 12:48:59;;;;;;;0.60;0.60;;;;;;;;;;7388124;19;20128;-69
2022/08/05 12:51:26;;;;;;;0.63;0.63;;;;;;;;;;7386182;19;20239;-69
2022/08/05 12:53:57;;;;;;;0.43;0.43;;;;;;;;;;7386045;19;20117;-69
2022/08/05 12:56:23;;;;;;;0.50;0.50;;;;;;;;;;7386141;19;20161;-69
2022/08/05 12:59:11;;;;;;;0.60;0.60;;;;;;;;;;7387461;19;20129;-69
2022/08/05 13:01:37;;;;;;;0.45;0.45;;;;;;;;;;7386905;19;20152;-69
2022/08/05 13:04:03;;;;;;;0.98;0.98;;;;;;;;;;7384916;19;20591;-68
2022/08/05 13:06:29;;;;;;;0.52;0.52;;;;;;;;;;7387178;19;20125;-69
2022/08/05 13:08:54;;;;;;;0.70;0.70;;;;;;;;;;7389481;19;20128;-69
2022/08/05 13:11:22;;;;;;;0.60;0.60;;;;;;;;;;7391458;19;20606;-69
2022/08/05 13:13:49;;;;;;;0.60;0.60;;;;;;;;;;7394980;19;20184;-69
2022/08/05 13:16:15;;;;;;;0.50;0.50;;;;;;;;;;7395054;19;20125;-69
2022/08/05 13:18:50;;;;;;;0.50;0.50;;;;;;;;;;7396898;19;20137;-69
2022/08/05 13:21:15;;;;;;;0.50;0.50;;;;;;;;;;7392494;19;20591;-69
2022/08/05 13:23:40;;;;;;;0.85;0.85;;;;;;;;;;7393811;19;20121;-69
2022/08/05 13:26:06;;;;;;;1.38;1.00;;;;;;;;;;7394006;19;20120;-69
2022/08/05 13:28:31;;;;;;;0.50;0.50;;;;;;;;;;7392442;19;20560;-69
2022/08/05 13:30:56;;;;;;;0.70;0.70;;;;;;;;;;7395518;19;20137;-69
2022/08/05 13:33:22;;;;;;;0.50;0.50;;;;;;;;;;7391924;19;20149;-69
2022/08/05 13:35:47;;;;;;;0.68;0.68;;;;;;;;;;7392323;19;20598;-67
2022/08/05 13:38:12;;;;;;;0.70;0.70;;;;;;;;;;7395611;19;20181;-66
2022/08/05 13:40:37;;;;;;;0.63;0.63;;;;;;;;;;7395437;19;20121;-66
2022/08/05 13:43:03;;;;;;;0.50;0.50;;;;;;;;;;7390839;19;20187;-67
2022/08/05 13:45:28;;;;;;;0.50;0.50;;;;;;;;;;7393551;19;20121;-67
2022/08/05 13:47:53;;;;;;;0.40;0.40;;;;;;;;;;7393053;19;20117;-66
2022/08/05 13:50:19;;;;;;;0.60;0.60;;;;;;;;;;7391916;19;20602;-67
2022/08/05 13:52:44;;;;;;;0.50;0.50;;;;;;;;;;7392051;19;20167;-66
2022/08/05 13:55:09;;;;;;;0.60;0.60;;;;;;;;;;7393771;19;20125;-67
2022/08/05 13:57:35;;;;;;;0.80;0.80;;;;;;;;;;7393618;19;20128;-67
2022/08/05 14:00:00;;;;;;;0.65;0.55;;;;;;;;;;7394501;19;20597;-66
2022/08/05 14:02:25;;;;;;;0.40;0.40;;;;;;;;;;7389671;19;20166;-66
2022/08/05 14:05:09;;;;;;;0.70;0.70;;;;;;;;;;7392966;19;20154;-66
2022/08/05 14:07:37;;;;;;;1.35;1.00;;;;;;;;;;7393903;19;20116;-67
2022/08/05 14:10:07;;;;;;;0.63;0.63;;;;;;;;;;7391637;19;20141;-66
2022/08/05 14:12:34;;;;;;;0.50;0.50;;;;;;;;;;7390344;19;20564;-66
2022/08/05 14:14:59;;;;;;;0.60;0.60;;;;;;;;;;7392303;19;20137;-67
2022/08/05 14:17:25;;;;;;;0.43;0.43;;;;;;;;;;7393553;19;20142;-67
2022/08/05 14:19:51;;;;;;;0.55;0.55;;;;;;;;;;7392748;19;20138;-67
2022/08/05 14:22:16;;;;;;;0.60;0.60;;;;;;;;;;7391323;19;20145;-67
2022/08/05 14:24:44;;;;;;;0.70;0.70;;;;;;;;;;7393769;19;20180;-67
2022/08/05 14:27:10;;;;;;;2.28;0.60;;;;;;;;;;7391284;19;20454;-67
2022/08/05 14:29:35;;;;;;;1.67;1.33;;;;;;;;;;7393103;19;20132;-67
2022/08/05 14:32:00;;;;;;;0.40;0.40;;;;;;;;;;7388099;19;20552;-67
2022/08/05 14:34:26;;;;;;;1.27;1.25;;;;;;;;;;7385984;19;20569;-67
2022/08/05 14:36:51;;;;;;;0.52;0.52;;;;;;;;;;7385940;19;20217;-67
2022/08/05 14:39:16;;;;;;;0.40;0.40;;;;;;;;;;7392769;19;20464;-67
2022/08/05 14:41:42;;;;;;;0.65;0.60;;;;;;;;;;7392496;19;20145;-67
2022/08/05 14:44:07;;;;;;;0.45;0.45;;;;;;;;;;7392861;19;20125;-67
2022/08/05 14:46:32;;;;;;;0.60;0.60;;;;;;;;;;7392091;19;20141;-67
2022/08/05 14:49:00;;;;;;;0.50;0.50;;;;;;;;;;7392928;19;20125;-67
2022/08/05 14:51:25;;;;;;;0.80;0.80;;;;;;;;;;7392937;19;20148;-67
2022/08/05 14:53:50;;;;;;;0.60;0.60;;;;;;;;;;7385788;19;20154;-67
2022/08/05 14:56:16;;;;;;;1.40;1.15;;;;;;;;;;7388323;19;20164;-67
2022/08/05 14:58:41;;;;;;;0.70;0.70;;;;;;;;;;7392677;19;20607;-67
2022/08/05 15:01:06;;;;;;;0.60;0.60;;;;;;;;;;7394150;19;20134;-67
2022/08/05 15:03:32;;;;;;;0.60;0.60;;;;;;;;;;7385560;19;20170;-67
2022/08/05 15:05:57;;;;;;;0.50;0.50;;;;;;;;;;7390470;19;20567;-67
2022/08/05 15:08:23;;;;;;;0.73;0.73;;;;;;;;;;7393397;19;20121;-66
2022/08/05 15:10:48;;;;;;;1.10;0.93;;;;;;;;;;7394109;19;20597;-67
2022/08/05 15:13:13;;;;;;;0.50;0.50;;;;;;;;;;7392898;19;20360;-67
2022/08/05 15:15:39;;;;;;;0.82;0.82;;;;;;;;;;7385540;19;20157;-66
2022/08/05 15:18:04;;;;;;;0.60;0.60;;;;;;;;;;7391429;19;20129;-67
2022/08/05 15:20:30;;;;;;;0.73;0.73;;;;;;;;;;7393098;19;20128;-67
2022/08/05 15:22:55;;;;;;;0.80;0.80;;;;;;;;;;7390495;19;20611;-67
2022/08/05 15:25:22;;;;;;;0.50;0.50;;;;;;;;;;7384184;19;20133;-67
2022/08/05 15:27:47;;;;;;;0.82;0.82;;;;;;;;;;7391750;19;20121;-66
2022/08/05 15:30:12;;;;;;;0.47;0.47;;;;;;;;;;7390199;19;20537;-67
2022/08/05 15:32:38;;;;;;;0.75;0.75;;;;;;;;;;7383342;19;20189;-67
2022/08/05 15:35:03;;;;;;;0.60;0.60;;;;;;;;;;7377022;19;20587;-67
2022/08/05 15:37:29;;;;;;;0.73;0.73;;;;;;;;;;7386896;19;20513;-67
2022/08/05 15:39:56;;;;;;;0.68;0.68;;;;;;;;;;7391705;19;20125;-69
2022/08/05 15:42:23;;;;;;;0.82;0.82;;;;;;;;;;7388529;19;20141;-69
2022/08/05 15:44:48;;;;;;;0.50;0.50;;;;;;;;;;7389898;19;20224;-69
2022/08/05 15:47:13;;;;;;;0.40;0.40;;;;;;;;;;7390447;19;20117;-69
2022/08/05 15:49:39;;;;;;;0.55;0.55;;;;;;;;;;7389450;19;20149;-69
2022/08/05 15:52:04;;;;;;;0.60;0.60;;;;;;;;;;7386659;19;20145;-68
2022/08/05 15:54:29;;;;;;;0.55;0.55;;;;;;;;;;7379539;19;20240;-69
2022/08/05 15:56:55;;;;;;;0.50;0.50;;;;;;;;;;7382342;19;20125;-69
2022/08/05 15:59:20;;;;;;;0.98;0.98;;;;;;;;;;7391182;19;20129;-69
2022/08/05 16:01:45;;;;;;;0.63;0.63;;;;;;;;;;7385447;19;20137;-69
2022/08/05 16:04:11;;;;;;;0.43;0.43;;;;;;;;;;7374635;19;20121;-69
2022/08/05 16:06:36;;;;;;;0.43;0.43;;;;;;;;;;7391295;19;20143;-69
2022/08/05 16:09:02;;;;;;;1.13;1.13;;;;;;;;;;7385524;19;20141;-68
2022/08/05 16:11:28;;;;;;;0.50;0.50;;;;;;;;;;7386541;19;20594;-69
2022/08/05 16:13:53;;;;;;;0.45;0.45;;;;;;;;;;7389962;19;20128;-68
2022/08/05 16:16:19;;;;;;;0.75;0.60;;;;;;;;;;7385081;19;20121;-69
2022/08/05 16:18:45;;;;;;;0.45;0.45;;;;;;;;;;7379697;19;20425;-68
2022/08/05 16:21:10;;;;;;;1.35;1.10;;;;;;;;;;7386136;19;20126;-68
2022/08/05 16:23:36;;;;;;;0.52;0.52;;;;;;;;;;7374726;19;20129;-69
2022/08/05 16:26:03;;;;;;;0.50;0.50;;;;;;;;;;7387153;19;20132;-68
2022/08/05 16:28:29;;;;;;;0.95;0.85;;;;;;;;;;7384222;19;20132;-69
2022/08/05 16:30:54;;;;;;;0.98;0.98;;;;;;;;;;7384066;19;20133;-68
2022/08/05 16:33:19;;;;;;;0.60;0.60;;;;;;;;;;7384427;19;20152;-68
2022/08/05 16:35:44;;;;;;;0.40;0.40;;;;;;;;;;7376016;19;20125;-68
2022/08/05 16:38:10;;;;;;;0.50;0.50;;;;;;;;;;7371197;19;20117;-68
2022/08/05 16:40:35;;;;;;;0.60;0.60;;;;;;;;;;7376006;19;20539;-70
